sensor_id;sensor_type;location;lat;lon;timestamp;P1;durP1;ratioP1;P2;durP2;ratioP2
63286;SDS011;49410;55.708;37.522;2023-03-08T00:00:57;13.00;;;6.18;;
63286;SDS011;49410;55.708;37.522;2023-03-08T00:03:23;13.15;;;5.30;;
63286;SDS011;49410;55.708;37.522;2023-03-08T00:05:50;17.58;;;5.90;;
63286;SDS011;49410;55.708;37.522;2023-03-08T00:08:16;15.95;;;5.93;;
63286;SDS011;49410;55.708;37.522;2023-03-08T00:10:42;16.63;;;6.00;;
63286;SDS011;49410;55.708;37.522;2023-03-08T00:13:09;13.73;;;5.63;;
63286;SDS011;49410;55.708;37.522;2023-03-08T00:15:38;13.48;;;5.38;;
63286;SDS011;49410;55.708;37.522;2023-03-08T00:18:04;12.82;;;5.25;;
63286;SDS011;49410;55.708;37.522;2023-03-08T00:20:30;16.05;;;5.85;;
63286;SDS011;49410;55.708;37.522;2023-03-08T00:22:56;13.60;;;5.38;;
63286;SDS011;49410;55.708;37.522;2023-03-08T00:25:22;11.93;;;5.35;;
63286;SDS011;49410;55.708;37.522;2023-03-08T00:27:47;13.23;;;5.55;;
63286;SDS011;49410;55.708;37.522;2023-03-08T00:30:13;12.25;;;5.90;;
63286;SDS011;49410;55.708;37.522;2023-03-08T00:32:38;15.48;;;6.07;;
63286;SDS011;49410;55.708;37.522;2023-03-08T00:37:29;12.40;;;5.78;;
63286;SDS011;49410;55.708;37.522;2023-03-08T00:39:55;13.07;;;5.88;;
63286;SDS011;49410;55.708;37.522;2023-03-08T00:42:21;12.93;;;5.40;;
63286;SDS011;49410;55.708;37.522;2023-03-08T00:44:46;13.82;;;5.15;;
63286;SDS011;49410;55.708;37.522;2023-03-08T00:47:12;12.85;;;6.15;;
63286;SDS011;49410;55.708;37.522;2023-03-08T00:49:38;13.57;;;5.97;;
63286;SDS011;49410;55.708;37.522;2023-03-08T00:52:03;13.10;;;5.47;;
63286;SDS011;49410;55.708;37.522;2023-03-08T00:56:55;12.90;;;4.78;;
63286;SDS011;49410;55.708;37.522;2023-03-08T00:59:21;18.15;;;5.38;;
63286;SDS011;49410;55.708;37.522;2023-03-08T01:01:46;12.20;;;5.00;;
63286;SDS011;49410;55.708;37.522;2023-03-08T01:04:12;16.13;;;5.70;;
63286;SDS011;49410;55.708;37.522;2023-03-08T01:06:38;15.73;;;6.55;;
63286;SDS011;49410;55.708;37.522;2023-03-08T01:09:04;14.05;;;6.30;;
63286;SDS011;49410;55.708;37.522;2023-03-08T01:13:57;22.27;;;7.55;;
63286;SDS011;49410;55.708;37.522;2023-03-08T01:16:24;16.70;;;6.85;;
63286;SDS011;49410;55.708;37.522;2023-03-08T01:18:52;14.68;;;6.20;;
63286;SDS011;49410;55.708;37.522;2023-03-08T01:21:18;17.23;;;6.20;;
63286;SDS011;49410;55.708;37.522;2023-03-08T01:23:44;13.88;;;4.95;;
63286;SDS011;49410;55.708;37.522;2023-03-08T01:26:10;14.27;;;5.65;;
63286;SDS011;49410;55.708;37.522;2023-03-08T01:28:38;15.73;;;5.40;;
63286;SDS011;49410;55.708;37.522;2023-03-08T01:33:31;12.88;;;4.80;;
63286;SDS011;49410;55.708;37.522;2023-03-08T01:35:57;11.38;;;4.88;;
63286;SDS011;49410;55.708;37.522;2023-03-08T01:38:23;14.35;;;5.50;;
63286;SDS011;49410;55.708;37.522;2023-03-08T01:40:48;12.75;;;5.18;;
63286;SDS011;49410;55.708;37.522;2023-03-08T01:46:17;11.88;;;4.57;;
63286;SDS011;49410;55.708;37.522;2023-03-08T01:51:41;9.82;;;4.72;;
63286;SDS011;49410;55.708;37.522;2023-03-08T01:54:28;16.42;;;5.25;;
63286;SDS011;49410;55.708;37.522;2023-03-08T01:57:03;11.95;;;5.28;;
63286;SDS011;49410;55.708;37.522;2023-03-08T01:59:33;12.75;;;5.40;;
63286;SDS011;49410;55.708;37.522;2023-03-08T02:01:59;15.20;;;4.93;;
63286;SDS011;49410;55.708;37.522;2023-03-08T02:04:26;12.55;;;4.70;;
63286;SDS011;49410;55.708;37.522;2023-03-08T02:06:52;12.95;;;4.60;;
63286;SDS011;49410;55.708;37.522;2023-03-08T02:09:17;11.20;;;5.13;;
63286;SDS011;49410;55.708;37.522;2023-03-08T02:11:44;14.57;;;5.45;;
63286;SDS011;49410;55.708;37.522;2023-03-08T02:14:11;14.13;;;5.95;;
63286;SDS011;49410;55.708;37.522;2023-03-08T02:16:37;12.32;;;5.22;;
63286;SDS011;49410;55.708;37.522;2023-03-08T02:19:13;13.65;;;5.53;;
63286;SDS011;49410;55.708;37.522;2023-03-08T02:21:46;17.00;;;5.97;;
63286;SDS011;49410;55.708;37.522;2023-03-08T02:24:18;13.98;;;5.53;;
63286;SDS011;49410;55.708;37.522;2023-03-08T02:26:46;12.40;;;5.10;;
63286;SDS011;49410;55.708;37.522;2023-03-08T02:29:12;13.30;;;5.93;;
63286;SDS011;49410;55.708;37.522;2023-03-08T02:31:37;11.70;;;5.35;;
63286;SDS011;49410;55.708;37.522;2023-03-08T02:36:29;14.35;;;5.93;;
63286;SDS011;49410;55.708;37.522;2023-03-08T02:38:54;12.25;;;5.32;;
63286;SDS011;49410;55.708;37.522;2023-03-08T02:41:20;18.10;;;5.80;;
63286;SDS011;49410;55.708;37.522;2023-03-08T02:43:45;16.63;;;6.15;;
63286;SDS011;49410;55.708;37.522;2023-03-08T02:46:12;11.57;;;4.93;;
63286;SDS011;49410;55.708;37.522;2023-03-08T02:48:38;15.93;;;5.40;;
63286;SDS011;49410;55.708;37.522;2023-03-08T02:51:03;15.30;;;5.00;;
63286;SDS011;49410;55.708;37.522;2023-03-08T02:53:29;13.15;;;5.25;;
63286;SDS011;49410;55.708;37.522;2023-03-08T02:55:55;13.10;;;5.55;;
63286;SDS011;49410;55.708;37.522;2023-03-08T02:58:20;16.27;;;6.13;;
63286;SDS011;49410;55.708;37.522;2023-03-08T03:00:46;18.75;;;7.38;;
63286;SDS011;49410;55.708;37.522;2023-03-08T03:03:12;13.02;;;5.80;;
63286;SDS011;49410;55.708;37.522;2023-03-08T03:05:41;11.93;;;5.63;;
63286;SDS011;49410;55.708;37.522;2023-03-08T03:08:07;13.57;;;5.35;;
63286;SDS011;49410;55.708;37.522;2023-03-08T03:13:02;11.52;;;5.05;;
63286;SDS011;49410;55.708;37.522;2023-03-08T03:15:29;13.35;;;5.55;;
63286;SDS011;49410;55.708;37.522;2023-03-08T03:17:55;17.10;;;6.10;;
63286;SDS011;49410;55.708;37.522;2023-03-08T03:20:20;13.88;;;5.65;;
63286;SDS011;49410;55.708;37.522;2023-03-08T03:22:46;14.85;;;5.65;;
63286;SDS011;49410;55.708;37.522;2023-03-08T03:25:11;12.85;;;6.30;;
63286;SDS011;49410;55.708;37.522;2023-03-08T03:27:37;17.30;;;6.32;;
63286;SDS011;49410;55.708;37.522;2023-03-08T03:30:03;30.77;;;11.73;;
63286;SDS011;49410;55.708;37.522;2023-03-08T03:32:30;16.83;;;7.50;;
63286;SDS011;49410;55.708;37.522;2023-03-08T03:34:56;14.93;;;6.22;;
63286;SDS011;49410;55.708;37.522;2023-03-08T03:37:21;18.80;;;7.57;;
63286;SDS011;49410;55.708;37.522;2023-03-08T03:39:47;15.82;;;6.43;;
63286;SDS011;49410;55.708;37.522;2023-03-08T03:42:12;19.02;;;7.82;;
63286;SDS011;49410;55.708;37.522;2023-03-08T03:44:38;17.25;;;7.38;;
63286;SDS011;49410;55.708;37.522;2023-03-08T03:47:04;18.88;;;7.15;;
63286;SDS011;49410;55.708;37.522;2023-03-08T03:51:55;17.50;;;6.70;;
63286;SDS011;49410;55.708;37.522;2023-03-08T03:54:21;18.88;;;6.45;;
63286;SDS011;49410;55.708;37.522;2023-03-08T03:56:46;19.80;;;7.72;;
63286;SDS011;49410;55.708;37.522;2023-03-08T03:59:11;18.58;;;7.82;;
63286;SDS011;49410;55.708;37.522;2023-03-08T04:01:37;19.65;;;7.18;;
63286;SDS011;49410;55.708;37.522;2023-03-08T04:04:03;21.30;;;8.20;;
63286;SDS011;49410;55.708;37.522;2023-03-08T04:06:29;29.50;;;10.93;;
63286;SDS011;49410;55.708;37.522;2023-03-08T04:09:00;23.17;;;8.40;;
63286;SDS011;49410;55.708;37.522;2023-03-08T04:11:31;22.15;;;7.80;;
63286;SDS011;49410;55.708;37.522;2023-03-08T04:13:58;21.00;;;7.78;;
63286;SDS011;49410;55.708;37.522;2023-03-08T04:16:26;18.52;;;7.60;;
63286;SDS011;49410;55.708;37.522;2023-03-08T04:18:54;25.98;;;8.00;;
63286;SDS011;49410;55.708;37.522;2023-03-08T04:21:21;19.00;;;7.47;;
63286;SDS011;49410;55.708;37.522;2023-03-08T04:23:47;25.88;;;7.97;;
63286;SDS011;49410;55.708;37.522;2023-03-08T04:26:12;21.73;;;7.97;;
63286;SDS011;49410;55.708;37.522;2023-03-08T04:28:39;26.85;;;8.88;;
63286;SDS011;49410;55.708;37.522;2023-03-08T04:31:15;32.83;;;8.80;;
63286;SDS011;49410;55.708;37.522;2023-03-08T04:33:43;36.05;;;9.60;;
63286;SDS011;49410;55.708;37.522;2023-03-08T04:36:10;28.40;;;9.45;;
63286;SDS011;49410;55.708;37.522;2023-03-08T04:38:37;30.85;;;8.57;;
63286;SDS011;49410;55.708;37.522;2023-03-08T04:41:03;28.02;;;9.25;;
63286;SDS011;49410;55.708;37.522;2023-03-08T04:43:43;20.40;;;7.57;;
63286;SDS011;49410;55.708;37.522;2023-03-08T04:46:09;32.08;;;9.25;;
63286;SDS011;49410;55.708;37.522;2023-03-08T04:48:35;25.17;;;8.77;;
63286;SDS011;49410;55.708;37.522;2023-03-08T04:51:01;24.63;;;8.88;;
63286;SDS011;49410;55.708;37.522;2023-03-08T04:53:28;25.88;;;8.60;;
63286;SDS011;49410;55.708;37.522;2023-03-08T04:55:56;32.35;;;9.02;;
63286;SDS011;49410;55.708;37.522;2023-03-08T04:58:24;20.95;;;7.93;;
63286;SDS011;49410;55.708;37.522;2023-03-08T05:00:50;24.13;;;7.35;;
63286;SDS011;49410;55.708;37.522;2023-03-08T05:03:16;27.75;;;9.52;;
63286;SDS011;49410;55.708;37.522;2023-03-08T05:08:25;29.17;;;8.48;;
63286;SDS011;49410;55.708;37.522;2023-03-08T05:11:00;26.80;;;7.88;;
63286;SDS011;49410;55.708;37.522;2023-03-08T05:13:27;23.08;;;8.15;;
63286;SDS011;49410;55.708;37.522;2023-03-08T05:15:54;24.38;;;7.78;;
63286;SDS011;49410;55.708;37.522;2023-03-08T05:18:20;26.13;;;8.23;;
63286;SDS011;49410;55.708;37.522;2023-03-08T05:23:42;25.10;;;8.48;;
63286;SDS011;49410;55.708;37.522;2023-03-08T05:26:08;31.02;;;9.13;;
63286;SDS011;49410;55.708;37.522;2023-03-08T05:28:37;28.48;;;8.82;;
63286;SDS011;49410;55.708;37.522;2023-03-08T05:31:20;22.30;;;7.90;;
63286;SDS011;49410;55.708;37.522;2023-03-08T05:33:47;25.05;;;7.85;;
63286;SDS011;49410;55.708;37.522;2023-03-08T05:36:15;22.30;;;8.55;;
63286;SDS011;49410;55.708;37.522;2023-03-08T05:38:41;24.55;;;8.00;;
63286;SDS011;49410;55.708;37.522;2023-03-08T05:41:09;24.48;;;9.80;;
63286;SDS011;49410;55.708;37.522;2023-03-08T05:43:37;26.52;;;9.48;;
63286;SDS011;49410;55.708;37.522;2023-03-08T05:46:04;22.23;;;7.55;;
63286;SDS011;49410;55.708;37.522;2023-03-08T05:48:40;24.67;;;8.80;;
63286;SDS011;49410;55.708;37.522;2023-03-08T05:51:06;26.48;;;8.60;;
63286;SDS011;49410;55.708;37.522;2023-03-08T05:53:34;23.77;;;9.00;;
63286;SDS011;49410;55.708;37.522;2023-03-08T05:56:09;24.95;;;9.20;;
63286;SDS011;49410;55.708;37.522;2023-03-08T05:59:06;24.52;;;8.98;;
63286;SDS011;49410;55.708;37.522;2023-03-08T06:01:31;22.73;;;8.13;;
63286;SDS011;49410;55.708;37.522;2023-03-08T06:03:57;24.85;;;8.77;;
63286;SDS011;49410;55.708;37.522;2023-03-08T06:06:23;23.02;;;8.55;;
63286;SDS011;49410;55.708;37.522;2023-03-08T06:08:50;24.08;;;7.90;;
63286;SDS011;49410;55.708;37.522;2023-03-08T06:11:16;26.50;;;9.00;;
63286;SDS011;49410;55.708;37.522;2023-03-08T06:13:42;18.58;;;7.97;;
63286;SDS011;49410;55.708;37.522;2023-03-08T06:16:08;22.17;;;7.82;;
63286;SDS011;49410;55.708;37.522;2023-03-08T06:18:35;20.80;;;7.55;;
63286;SDS011;49410;55.708;37.522;2023-03-08T06:21:02;21.73;;;8.57;;
63286;SDS011;49410;55.708;37.522;2023-03-08T06:23:29;21.00;;;7.75;;
63286;SDS011;49410;55.708;37.522;2023-03-08T06:25:55;18.88;;;7.57;;
63286;SDS011;49410;55.708;37.522;2023-03-08T06:28:22;18.52;;;7.78;;
63286;SDS011;49410;55.708;37.522;2023-03-08T06:30:48;21.67;;;7.47;;
63286;SDS011;49410;55.708;37.522;2023-03-08T06:35:43;13.30;;;5.88;;
63286;SDS011;49410;55.708;37.522;2023-03-08T06:38:23;13.80;;;5.50;;
63286;SDS011;49410;55.708;37.522;2023-03-08T06:40:49;12.07;;;5.10;;
63286;SDS011;49410;55.708;37.522;2023-03-08T06:45:40;16.33;;;5.00;;
63286;SDS011;49410;55.708;37.522;2023-03-08T06:48:05;14.10;;;6.22;;
63286;SDS011;49410;55.708;37.522;2023-03-08T06:52:57;11.60;;;4.35;;
63286;SDS011;49410;55.708;37.522;2023-03-08T06:57:48;14.10;;;5.88;;
63286;SDS011;49410;55.708;37.522;2023-03-08T07:00:14;13.73;;;5.05;;
63286;SDS011;49410;55.708;37.522;2023-03-08T07:02:39;13.77;;;5.50;;
63286;SDS011;49410;55.708;37.522;2023-03-08T07:07:31;11.23;;;4.95;;
63286;SDS011;49410;55.708;37.522;2023-03-08T07:12:22;15.27;;;5.00;;
63286;SDS011;49410;55.708;37.522;2023-03-08T07:17:13;15.88;;;5.72;;
63286;SDS011;49410;55.708;37.522;2023-03-08T07:22:04;11.55;;;4.50;;
63286;SDS011;49410;55.708;37.522;2023-03-08T07:26:55;11.80;;;4.65;;
63286;SDS011;49410;55.708;37.522;2023-03-08T07:31:45;10.73;;;4.68;;
63286;SDS011;49410;55.708;37.522;2023-03-08T07:36:36;11.23;;;5.05;;
63286;SDS011;49410;55.708;37.522;2023-03-08T07:39:04;12.32;;;4.28;;
63286;SDS011;49410;55.708;37.522;2023-03-08T07:43:56;11.00;;;4.30;;
63286;SDS011;49410;55.708;37.522;2023-03-08T07:48:47;9.75;;;4.20;;
63286;SDS011;49410;55.708;37.522;2023-03-08T07:51:13;12.18;;;4.32;;
63286;SDS011;49410;55.708;37.522;2023-03-08T07:56:04;14.40;;;5.00;;
63286;SDS011;49410;55.708;37.522;2023-03-08T07:58:31;13.93;;;5.55;;
63286;SDS011;49410;55.708;37.522;2023-03-08T08:00:57;13.23;;;5.70;;
63286;SDS011;49410;55.708;37.522;2023-03-08T08:03:22;11.63;;;4.85;;
63286;SDS011;49410;55.708;37.522;2023-03-08T08:08:13;10.13;;;4.47;;
63286;SDS011;49410;55.708;37.522;2023-03-08T08:10:39;11.43;;;5.18;;
63286;SDS011;49410;55.708;37.522;2023-03-08T08:13:05;11.73;;;4.85;;
63286;SDS011;49410;55.708;37.522;2023-03-08T08:15:31;11.48;;;4.90;;
63286;SDS011;49410;55.708;37.522;2023-03-08T08:17:57;13.35;;;4.88;;
63286;SDS011;49410;55.708;37.522;2023-03-08T08:22:49;11.40;;;4.60;;
63286;SDS011;49410;55.708;37.522;2023-03-08T08:25:17;11.50;;;4.82;;
63286;SDS011;49410;55.708;37.522;2023-03-08T08:27:43;11.93;;;5.20;;
63286;SDS011;49410;55.708;37.522;2023-03-08T08:30:11;11.63;;;4.97;;
63286;SDS011;49410;55.708;37.522;2023-03-08T08:32:38;8.82;;;4.55;;
63286;SDS011;49410;55.708;37.522;2023-03-08T08:35:03;14.80;;;5.75;;
63286;SDS011;49410;55.708;37.522;2023-03-08T08:37:30;11.45;;;4.80;;
63286;SDS011;49410;55.708;37.522;2023-03-08T08:39:57;11.70;;;5.20;;
63286;SDS011;49410;55.708;37.522;2023-03-08T08:42:23;12.57;;;5.15;;
63286;SDS011;49410;55.708;37.522;2023-03-08T08:44:48;13.18;;;5.30;;
63286;SDS011;49410;55.708;37.522;2023-03-08T08:47:14;13.68;;;5.13;;
63286;SDS011;49410;55.708;37.522;2023-03-08T08:49:40;14.07;;;4.75;;
63286;SDS011;49410;55.708;37.522;2023-03-08T08:52:05;11.30;;;4.55;;
63286;SDS011;49410;55.708;37.522;2023-03-08T08:54:31;12.38;;;5.30;;
63286;SDS011;49410;55.708;37.522;2023-03-08T08:56:58;12.63;;;5.00;;
63286;SDS011;49410;55.708;37.522;2023-03-08T08:59:24;12.40;;;5.47;;
63286;SDS011;49410;55.708;37.522;2023-03-08T09:01:49;12.07;;;4.82;;
63286;SDS011;49410;55.708;37.522;2023-03-08T09:04:15;10.25;;;4.20;;
63286;SDS011;49410;55.708;37.522;2023-03-08T09:06:41;10.88;;;4.85;;
63286;SDS011;49410;55.708;37.522;2023-03-08T09:09:06;11.25;;;4.70;;
63286;SDS011;49410;55.708;37.522;2023-03-08T09:11:32;8.70;;;4.35;;
63286;SDS011;49410;55.708;37.522;2023-03-08T09:13:58;12.02;;;4.70;;
63286;SDS011;49410;55.708;37.522;2023-03-08T09:18:56;11.43;;;4.68;;
63286;SDS011;49410;55.708;37.522;2023-03-08T09:21:22;12.07;;;4.45;;
63286;SDS011;49410;55.708;37.522;2023-03-08T09:23:49;10.38;;;4.30;;
63286;SDS011;49410;55.708;37.522;2023-03-08T09:26:15;9.20;;;3.88;;
63286;SDS011;49410;55.708;37.522;2023-03-08T09:28:40;10.88;;;5.03;;
63286;SDS011;49410;55.708;37.522;2023-03-08T09:31:07;10.65;;;4.88;;
63286;SDS011;49410;55.708;37.522;2023-03-08T09:33:37;12.43;;;5.13;;
63286;SDS011;49410;55.708;37.522;2023-03-08T09:36:10;12.55;;;4.53;;
63286;SDS011;49410;55.708;37.522;2023-03-08T09:38:36;11.65;;;4.60;;
63286;SDS011;49410;55.708;37.522;2023-03-08T09:41:05;12.70;;;4.78;;
63286;SDS011;49410;55.708;37.522;2023-03-08T09:43:43;10.27;;;4.45;;
63286;SDS011;49410;55.708;37.522;2023-03-08T09:46:12;12.18;;;5.07;;
63286;SDS011;49410;55.708;37.522;2023-03-08T09:48:41;11.10;;;5.32;;
63286;SDS011;49410;55.708;37.522;2023-03-08T09:51:11;11.93;;;5.43;;
63286;SDS011;49410;55.708;37.522;2023-03-08T09:53:57;10.77;;;4.80;;
63286;SDS011;49410;55.708;37.522;2023-03-08T09:56:31;13.25;;;5.07;;
63286;SDS011;49410;55.708;37.522;2023-03-08T09:59:10;12.20;;;5.38;;
63286;SDS011;49410;55.708;37.522;2023-03-08T10:10:02;14.60;;;6.43;;
63286;SDS011;49410;55.708;37.522;2023-03-08T10:15:22;14.77;;;6.32;;
63286;SDS011;49410;55.708;37.522;2023-03-08T10:20:23;16.90;;;6.95;;
63286;SDS011;49410;55.708;37.522;2023-03-08T10:22:58;15.52;;;6.45;;
63286;SDS011;49410;55.708;37.522;2023-03-08T10:27:53;15.57;;;7.32;;
63286;SDS011;49410;55.708;37.522;2023-03-08T10:30:21;15.90;;;7.07;;
63286;SDS011;49410;55.708;37.522;2023-03-08T10:32:52;16.77;;;6.97;;
63286;SDS011;49410;55.708;37.522;2023-03-08T10:35:33;14.35;;;6.00;;
63286;SDS011;49410;55.708;37.522;2023-03-08T10:38:02;15.63;;;6.65;;
63286;SDS011;49410;55.708;37.522;2023-03-08T10:40:28;15.70;;;6.60;;
63286;SDS011;49410;55.708;37.522;2023-03-08T10:42:56;16.60;;;7.18;;
63286;SDS011;49410;55.708;37.522;2023-03-08T10:45:27;18.33;;;7.53;;
63286;SDS011;49410;55.708;37.522;2023-03-08T10:47:54;15.27;;;6.45;;
63286;SDS011;49410;55.708;37.522;2023-03-08T10:50:26;16.42;;;7.05;;
63286;SDS011;49410;55.708;37.522;2023-03-08T10:52:54;21.27;;;7.85;;
63286;SDS011;49410;55.708;37.522;2023-03-08T10:55:24;18.25;;;7.57;;
63286;SDS011;49410;55.708;37.522;2023-03-08T10:57:57;19.02;;;7.53;;
63286;SDS011;49410;55.708;37.522;2023-03-08T11:03:18;17.70;;;7.55;;
63286;SDS011;49410;55.708;37.522;2023-03-08T11:06:01;21.65;;;8.23;;
63286;SDS011;49410;55.708;37.522;2023-03-08T11:11:04;16.50;;;6.22;;
63286;SDS011;49410;55.708;37.522;2023-03-08T11:13:45;21.80;;;8.13;;
63286;SDS011;49410;55.708;37.522;2023-03-08T11:27:34;22.70;;;8.77;;
63286;SDS011;49410;55.708;37.522;2023-03-08T11:38:53;21.20;;;8.10;;
63286;SDS011;49410;55.708;37.522;2023-03-08T11:44:03;21.38;;;8.00;;
63286;SDS011;49410;55.708;37.522;2023-03-08T11:49:27;18.73;;;8.48;;
63286;SDS011;49410;55.708;37.522;2023-03-08T11:52:10;19.60;;;8.48;;
63286;SDS011;49410;55.708;37.522;2023-03-08T11:57:39;21.23;;;8.13;;
63286;SDS011;49410;55.708;37.522;2023-03-08T12:00:18;17.50;;;6.78;;
63286;SDS011;49410;55.708;37.522;2023-03-08T12:03:11;19.48;;;8.00;;
63286;SDS011;49410;55.708;37.522;2023-03-08T12:05:56;22.88;;;8.32;;
63286;SDS011;49410;55.708;37.522;2023-03-08T12:11:09;18.80;;;8.35;;
63286;SDS011;49410;55.708;37.522;2023-03-08T12:13:43;20.85;;;8.32;;
63286;SDS011;49410;55.708;37.522;2023-03-08T12:16:24;20.95;;;8.90;;
63286;SDS011;49410;55.708;37.522;2023-03-08T12:19:02;19.08;;;8.45;;
63286;SDS011;49410;55.708;37.522;2023-03-08T12:24:17;17.13;;;6.75;;
63286;SDS011;49410;55.708;37.522;2023-03-08T12:27:07;18.75;;;7.93;;
63286;SDS011;49410;55.708;37.522;2023-03-08T12:29:42;15.65;;;7.28;;
63286;SDS011;49410;55.708;37.522;2023-03-08T12:32:38;16.85;;;7.22;;
63286;SDS011;49410;55.708;37.522;2023-03-08T12:37:57;23.13;;;9.90;;
63286;SDS011;49410;55.708;37.522;2023-03-08T12:40:29;19.17;;;7.88;;
63286;SDS011;49410;55.708;37.522;2023-03-08T12:43:10;16.45;;;8.05;;
63286;SDS011;49410;55.708;37.522;2023-03-08T12:45:38;17.85;;;8.10;;
63286;SDS011;49410;55.708;37.522;2023-03-08T12:50:35;19.00;;;8.30;;
63286;SDS011;49410;55.708;37.522;2023-03-08T12:56:05;22.95;;;8.50;;
63286;SDS011;49410;55.708;37.522;2023-03-08T12:59:27;20.42;;;9.38;;
63286;SDS011;49410;55.708;37.522;2023-03-08T13:04:06;19.17;;;8.30;;
63286;SDS011;49410;55.708;37.522;2023-03-08T13:07:02;20.27;;;8.50;;
63286;SDS011;49410;55.708;37.522;2023-03-08T13:12:32;22.88;;;8.95;;
63286;SDS011;49410;55.708;37.522;2023-03-08T13:17:39;21.02;;;7.70;;
63286;SDS011;49410;55.708;37.522;2023-03-08T13:23:07;22.17;;;9.32;;
63286;SDS011;49410;55.708;37.522;2023-03-08T13:28:19;19.48;;;8.77;;
63286;SDS011;49410;55.708;37.522;2023-03-08T13:33:20;21.83;;;9.07;;
63286;SDS011;49410;55.708;37.522;2023-03-08T13:36:00;19.15;;;8.02;;
63286;SDS011;49410;55.708;37.522;2023-03-08T13:38:29;21.55;;;9.15;;
63286;SDS011;49410;55.708;37.522;2023-03-08T13:40:56;22.70;;;8.77;;
63286;SDS011;49410;55.708;37.522;2023-03-08T13:43:27;18.80;;;8.63;;
63286;SDS011;49410;55.708;37.522;2023-03-08T13:45:55;20.77;;;9.20;;
63286;SDS011;49410;55.708;37.522;2023-03-08T13:48:24;22.38;;;9.13;;
63286;SDS011;49410;55.708;37.522;2023-03-08T13:50:53;19.20;;;8.30;;
63286;SDS011;49410;55.708;37.522;2023-03-08T13:53:23;17.90;;;7.88;;
63286;SDS011;49410;55.708;37.522;2023-03-08T13:55:52;20.20;;;9.07;;
63286;SDS011;49410;55.708;37.522;2023-03-08T13:58:40;18.38;;;8.55;;
63286;SDS011;49410;55.708;37.522;2023-03-08T14:01:11;20.33;;;8.43;;
63286;SDS011;49410;55.708;37.522;2023-03-08T14:03:39;20.02;;;8.85;;
63286;SDS011;49410;55.708;37.522;2023-03-08T14:06:39;19.23;;;8.38;;
63286;SDS011;49410;55.708;37.522;2023-03-08T14:08:59;18.25;;;7.97;;
63286;SDS011;49410;55.708;37.522;2023-03-08T14:11:31;18.35;;;8.02;;
63286;SDS011;49410;55.708;37.522;2023-03-08T14:14:03;26.33;;;9.27;;
63286;SDS011;49410;55.708;37.522;2023-03-08T14:16:35;23.98;;;9.48;;
63286;SDS011;49410;55.708;37.522;2023-03-08T14:19:37;22.25;;;9.25;;
63286;SDS011;49410;55.708;37.522;2023-03-08T14:21:57;22.70;;;8.52;;
63286;SDS011;49410;55.708;37.522;2023-03-08T14:24:25;21.08;;;9.32;;
63286;SDS011;49410;55.708;37.522;2023-03-08T14:27:01;18.45;;;8.32;;
63286;SDS011;49410;55.708;37.522;2023-03-08T14:29:32;19.67;;;8.68;;
63286;SDS011;49410;55.708;37.522;2023-03-08T14:34:32;21.38;;;8.80;;
63286;SDS011;49410;55.708;37.522;2023-03-08T14:47:56;21.50;;;8.63;;
63286;SDS011;49410;55.708;37.522;2023-03-08T14:50:24;17.25;;;6.68;;
63286;SDS011;49410;55.708;37.522;2023-03-08T14:52:58;19.90;;;8.43;;
63286;SDS011;49410;55.708;37.522;2023-03-08T14:55:33;23.48;;;8.40;;
63286;SDS011;49410;55.708;37.522;2023-03-08T14:58:00;21.50;;;8.73;;
63286;SDS011;49410;55.708;37.522;2023-03-08T15:00:28;20.10;;;7.78;;
63286;SDS011;49410;55.708;37.522;2023-03-08T15:02:56;20.08;;;8.70;;
63286;SDS011;49410;55.708;37.522;2023-03-08T15:05:23;20.10;;;9.23;;
63286;SDS011;49410;55.708;37.522;2023-03-08T15:07:49;15.48;;;6.53;;
63286;SDS011;49410;55.708;37.522;2023-03-08T15:12:48;18.30;;;8.55;;
63286;SDS011;49410;55.708;37.522;2023-03-08T15:15:14;23.15;;;9.15;;
63286;SDS011;49410;55.708;37.522;2023-03-08T15:17:39;19.27;;;7.93;;
63286;SDS011;49410;55.708;37.522;2023-03-08T15:20:05;20.38;;;8.27;;
63286;SDS011;49410;55.708;37.522;2023-03-08T15:22:32;28.58;;;10.48;;
63286;SDS011;49410;55.708;37.522;2023-03-08T15:25:12;22.77;;;9.55;;
63286;SDS011;49410;55.708;37.522;2023-03-08T15:27:39;21.30;;;8.75;;
63286;SDS011;49410;55.708;37.522;2023-03-08T15:30:08;21.25;;;9.02;;
63286;SDS011;49410;55.708;37.522;2023-03-08T15:32:39;21.98;;;8.55;;
63286;SDS011;49410;55.708;37.522;2023-03-08T15:35:05;21.45;;;8.32;;
63286;SDS011;49410;55.708;37.522;2023-03-08T15:37:31;23.08;;;9.73;;
63286;SDS011;49410;55.708;37.522;2023-03-08T15:39:56;18.85;;;8.10;;
63286;SDS011;49410;55.708;37.522;2023-03-08T15:42:22;26.98;;;10.27;;
63286;SDS011;49410;55.708;37.522;2023-03-08T15:44:47;24.80;;;9.88;;
63286;SDS011;49410;55.708;37.522;2023-03-08T15:47:13;25.95;;;10.90;;
63286;SDS011;49410;55.708;37.522;2023-03-08T15:49:38;22.88;;;8.70;;
63286;SDS011;49410;55.708;37.522;2023-03-08T15:52:04;17.88;;;8.00;;
63286;SDS011;49410;55.708;37.522;2023-03-08T15:54:29;25.15;;;9.73;;
63286;SDS011;49410;55.708;37.522;2023-03-08T15:56:55;27.52;;;10.73;;
63286;SDS011;49410;55.708;37.522;2023-03-08T15:59:22;23.13;;;9.65;;
63286;SDS011;49410;55.708;37.522;2023-03-08T16:01:48;22.27;;;8.43;;
63286;SDS011;49410;55.708;37.522;2023-03-08T16:04:13;25.25;;;9.65;;
63286;SDS011;49410;55.708;37.522;2023-03-08T16:06:40;23.67;;;9.45;;
63286;SDS011;49410;55.708;37.522;2023-03-08T16:09:07;22.48;;;9.15;;
63286;SDS011;49410;55.708;37.522;2023-03-08T16:11:32;21.88;;;8.93;;
63286;SDS011;49410;55.708;37.522;2023-03-08T16:13:58;23.85;;;9.60;;
63286;SDS011;49410;55.708;37.522;2023-03-08T16:16:23;24.73;;;9.82;;
63286;SDS011;49410;55.708;37.522;2023-03-08T16:18:49;21.27;;;9.38;;
63286;SDS011;49410;55.708;37.522;2023-03-08T16:21:15;22.20;;;9.93;;
63286;SDS011;49410;55.708;37.522;2023-03-08T16:23:41;24.25;;;10.05;;
63286;SDS011;49410;55.708;37.522;2023-03-08T16:26:10;25.08;;;9.98;;
63286;SDS011;49410;55.708;37.522;2023-03-08T16:28:37;20.70;;;8.40;;
63286;SDS011;49410;55.708;37.522;2023-03-08T16:31:03;22.63;;;8.25;;
63286;SDS011;49410;55.708;37.522;2023-03-08T16:33:29;20.13;;;8.18;;
63286;SDS011;49410;55.708;37.522;2023-03-08T16:35:55;23.48;;;8.98;;
63286;SDS011;49410;55.708;37.522;2023-03-08T16:38:21;23.13;;;9.80;;
63286;SDS011;49410;55.708;37.522;2023-03-08T16:40:47;22.30;;;9.55;;
63286;SDS011;49410;55.708;37.522;2023-03-08T16:43:13;21.83;;;9.65;;
63286;SDS011;49410;55.708;37.522;2023-03-08T16:45:50;24.77;;;9.43;;
63286;SDS011;49410;55.708;37.522;2023-03-08T16:48:18;21.40;;;8.40;;
63286;SDS011;49410;55.708;37.522;2023-03-08T16:50:48;26.15;;;9.27;;
63286;SDS011;49410;55.708;37.522;2023-03-08T16:53:15;21.38;;;9.05;;
63286;SDS011;49410;55.708;37.522;2023-03-08T16:55:41;20.88;;;8.50;;
63286;SDS011;49410;55.708;37.522;2023-03-08T16:58:06;20.77;;;8.25;;
63286;SDS011;49410;55.708;37.522;2023-03-08T17:00:32;19.95;;;8.20;;
63286;SDS011;49410;55.708;37.522;2023-03-08T17:02:58;21.55;;;8.45;;
63286;SDS011;49410;55.708;37.522;2023-03-08T17:05:23;19.55;;;7.03;;
63286;SDS011;49410;55.708;37.522;2023-03-08T17:07:49;22.33;;;8.75;;
63286;SDS011;49410;55.708;37.522;2023-03-08T17:10:14;19.63;;;8.57;;
63286;SDS011;49410;55.708;37.522;2023-03-08T17:12:40;22.95;;;9.43;;
63286;SDS011;49410;55.708;37.522;2023-03-08T17:15:06;24.30;;;9.90;;